sensor_id;sensor_type;location;lat;lon;timestamp;P1;durP1;ratioP1;P2;durP2;ratioP2
8626;SDS011;4351;51.422;6.794;2023-03-31T00:01:40;8.27;;;2.00;;
8626;SDS011;4351;51.422;6.794;2023-03-31T00:04:08;7.07;;;1.80;;
8626;SDS011;4351;51.422;6.794;2023-03-31T00:06:41;5.53;;;1.63;;
8626;SDS011;4351;51.422;6.794;2023-03-31T00:09:09;6.37;;;1.57;;
8626;SDS011;4351;51.422;6.794;2023-03-31T00:11:38;4.93;;;1.70;;
8626;SDS011;4351;51.422;6.794;2023-03-31T00:14:06;3.63;;;1.37;;
8626;SDS011;4351;51.422;6.794;2023-03-31T00:16:35;5.77;;;1.60;;
8626;SDS011;4351;51.422;6.794;2023-03-31T00:19:04;5.47;;;1.43;;
8626;SDS011;4351;51.422;6.794;2023-03-31T00:21:35;7.50;;;1.87;;
8626;SDS011;4351;51.422;6.794;2023-03-31T00:24:05;6.60;;;1.50;;
8626;SDS011;4351;51.422;6.794;2023-03-31T00:26:34;6.03;;;1.60;;
8626;SDS011;4351;51.422;6.794;2023-03-31T00:29:02;7.03;;;1.50;;
8626;SDS011;4351;51.422;6.794;2023-03-31T00:31:32;6.50;;;1.40;;
8626;SDS011;4351;51.422;6.794;2023-03-31T00:34:01;5.73;;;1.30;;
8626;SDS011;4351;51.422;6.794;2023-03-31T00:36:29;5.90;;;1.50;;
8626;SDS011;4351;51.422;6.794;2023-03-31T00:38:58;5.60;;;1.60;;
8626;SDS011;4351;51.422;6.794;2023-03-31T00:41:29;4.03;;;1.30;;
8626;SDS011;4351;51.422;6.794;2023-03-31T00:44:00;6.03;;;1.53;;
8626;SDS011;4351;51.422;6.794;2023-03-31T00:46:34;5.63;;;1.33;;
8626;SDS011;4351;51.422;6.794;2023-03-31T00:49:06;5.97;;;1.30;;
8626;SDS011;4351;51.422;6.794;2023-03-31T00:51:43;7.27;;;1.43;;
8626;SDS011;4351;51.422;6.794;2023-03-31T00:54:12;7.53;;;1.60;;
8626;SDS011;4351;51.422;6.794;2023-03-31T00:56:42;4.37;;;1.20;;
8626;SDS011;4351;51.422;6.794;2023-03-31T00:59:14;6.43;;;1.60;;
8626;SDS011;4351;51.422;6.794;2023-03-31T01:01:43;5.43;;;1.50;;
8626;SDS011;4351;51.422;6.794;2023-03-31T01:04:15;9.53;;;1.57;;
8626;SDS011;4351;51.422;6.794;2023-03-31T01:06:50;5.50;;;1.03;;
8626;SDS011;4351;51.422;6.794;2023-03-31T01:09:26;5.93;;;1.60;;
8626;SDS011;4351;51.422;6.794;2023-03-31T01:12:02;4.73;;;1.37;;
8626;SDS011;4351;51.422;6.794;2023-03-31T01:14:34;3.43;;;1.30;;
8626;SDS011;4351;51.422;6.794;2023-03-31T01:17:03;6.90;;;1.67;;
8626;SDS011;4351;51.422;6.794;2023-03-31T01:19:40;3.43;;;1.10;;
8626;SDS011;4351;51.422;6.794;2023-03-31T01:25:25;4.47;;;1.47;;
8626;SDS011;4351;51.422;6.794;2023-03-31T01:28:25;5.57;;;1.40;;
8626;SDS011;4351;51.422;6.794;2023-03-31T01:34:23;6.17;;;1.53;;
8626;SDS011;4351;51.422;6.794;2023-03-31T01:37:14;5.30;;;1.40;;
8626;SDS011;4351;51.422;6.794;2023-03-31T01:40:06;4.60;;;1.30;;
8626;SDS011;4351;51.422;6.794;2023-03-31T01:43:02;5.40;;;1.50;;
8626;SDS011;4351;51.422;6.794;2023-03-31T01:45:39;4.97;;;1.53;;
8626;SDS011;4351;51.422;6.794;2023-03-31T01:48:16;8.57;;;2.23;;
8626;SDS011;4351;51.422;6.794;2023-03-31T01:50:52;12.30;;;2.00;;
8626;SDS011;4351;51.422;6.794;2023-03-31T01:53:25;10.03;;;2.03;;
8626;SDS011;4351;51.422;6.794;2023-03-31T01:56:01;9.20;;;1.80;;
8626;SDS011;4351;51.422;6.794;2023-03-31T01:58:35;8.50;;;2.00;;
8626;SDS011;4351;51.422;6.794;2023-03-31T02:01:07;8.10;;;1.80;;
8626;SDS011;4351;51.422;6.794;2023-03-31T02:03:44;10.67;;;2.40;;
8626;SDS011;4351;51.422;6.794;2023-03-31T02:06:18;14.57;;;2.77;;
8626;SDS011;4351;51.422;6.794;2023-03-31T02:08:50;8.00;;;2.13;;
8626;SDS011;4351;51.422;6.794;2023-03-31T02:11:24;4.13;;;1.73;;
8626;SDS011;4351;51.422;6.794;2023-03-31T02:13:55;7.57;;;2.30;;
8626;SDS011;4351;51.422;6.794;2023-03-31T02:16:27;6.47;;;1.63;;
8626;SDS011;4351;51.422;6.794;2023-03-31T02:19:01;8.33;;;2.30;;
8626;SDS011;4351;51.422;6.794;2023-03-31T02:21:32;7.67;;;1.60;;
8626;SDS011;4351;51.422;6.794;2023-03-31T02:24:05;7.70;;;1.80;;
8626;SDS011;4351;51.422;6.794;2023-03-31T02:26:38;7.60;;;1.87;;
8626;SDS011;4351;51.422;6.794;2023-03-31T02:29:09;7.43;;;1.50;;
8626;SDS011;4351;51.422;6.794;2023-03-31T02:31:39;6.60;;;1.70;;
8626;SDS011;4351;51.422;6.794;2023-03-31T02:34:13;9.47;;;2.27;;
8626;SDS011;4351;51.422;6.794;2023-03-31T02:36:41;5.97;;;1.67;;
8626;SDS011;4351;51.422;6.794;2023-03-31T02:39:14;11.50;;;1.93;;
8626;SDS011;4351;51.422;6.794;2023-03-31T02:41:47;8.83;;;1.73;;
8626;SDS011;4351;51.422;6.794;2023-03-31T02:44:17;8.80;;;1.70;;
8626;SDS011;4351;51.422;6.794;2023-03-31T02:46:47;12.57;;;1.97;;
8626;SDS011;4351;51.422;6.794;2023-03-31T02:49:15;11.33;;;2.23;;
8626;SDS011;4351;51.422;6.794;2023-03-31T02:51:59;6.90;;;1.60;;
8626;SDS011;4351;51.422;6.794;2023-03-31T02:55:02;11.20;;;2.20;;
8626;SDS011;4351;51.422;6.794;2023-03-31T02:57:50;7.63;;;2.10;;
8626;SDS011;4351;51.422;6.794;2023-03-31T03:00:34;10.70;;;2.03;;
8626;SDS011;4351;51.422;6.794;2023-03-31T03:03:14;15.27;;;2.60;;
8626;SDS011;4351;51.422;6.794;2023-03-31T03:05:56;8.93;;;1.93;;
8626;SDS011;4351;51.422;6.794;2023-03-31T03:09:06;8.97;;;1.90;;
8626;SDS011;4351;51.422;6.794;2023-03-31T03:11:45;7.60;;;1.73;;
8626;SDS011;4351;51.422;6.794;2023-03-31T03:14:22;8.77;;;2.17;;
8626;SDS011;4351;51.422;6.794;2023-03-31T03:16:56;9.00;;;2.20;;
8626;SDS011;4351;51.422;6.794;2023-03-31T03:19:28;11.13;;;2.40;;
8626;SDS011;4351;51.422;6.794;2023-03-31T03:21:56;9.43;;;1.90;;
8626;SDS011;4351;51.422;6.794;2023-03-31T03:24:24;10.83;;;2.10;;
8626;SDS011;4351;51.422;6.794;2023-03-31T03:26:55;10.60;;;1.90;;
8626;SDS011;4351;51.422;6.794;2023-03-31T03:29:25;10.77;;;2.07;;
8626;SDS011;4351;51.422;6.794;2023-03-31T03:31:53;13.37;;;2.23;;
8626;SDS011;4351;51.422;6.794;2023-03-31T03:34:21;12.63;;;2.30;;
8626;SDS011;4351;51.422;6.794;2023-03-31T03:36:50;9.53;;;2.00;;
8626;SDS011;4351;51.422;6.794;2023-03-31T03:39:18;11.53;;;2.00;;
8626;SDS011;4351;51.422;6.794;2023-03-31T03:41:46;11.63;;;2.60;;
8626;SDS011;4351;51.422;6.794;2023-03-31T03:44:14;11.77;;;2.33;;
8626;SDS011;4351;51.422;6.794;2023-03-31T03:46:43;10.23;;;2.17;;
8626;SDS011;4351;51.422;6.794;2023-03-31T03:49:11;9.07;;;2.30;;
8626;SDS011;4351;51.422;6.794;2023-03-31T03:51:39;9.67;;;2.53;;
8626;SDS011;4351;51.422;6.794;2023-03-31T03:54:07;11.43;;;2.00;;
8626;SDS011;4351;51.422;6.794;2023-03-31T03:56:35;12.17;;;2.40;;
8626;SDS011;4351;51.422;6.794;2023-03-31T03:59:03;11.03;;;2.50;;
8626;SDS011;4351;51.422;6.794;2023-03-31T04:01:31;13.40;;;2.67;;
8626;SDS011;4351;51.422;6.794;2023-03-31T04:04:00;10.93;;;2.37;;
8626;SDS011;4351;51.422;6.794;2023-03-31T04:06:28;15.33;;;2.97;;
8626;SDS011;4351;51.422;6.794;2023-03-31T04:08:57;14.00;;;2.30;;
8626;SDS011;4351;51.422;6.794;2023-03-31T04:11:25;11.70;;;2.63;;
8626;SDS011;4351;51.422;6.794;2023-03-31T04:13:53;14.23;;;2.80;;
8626;SDS011;4351;51.422;6.794;2023-03-31T04:16:21;11.13;;;2.53;;
8626;SDS011;4351;51.422;6.794;2023-03-31T04:18:50;11.93;;;2.67;;
8626;SDS011;4351;51.422;6.794;2023-03-31T04:21:23;7.53;;;2.20;;
8626;SDS011;4351;51.422;6.794;2023-03-31T04:23:52;9.67;;;2.33;;
8626;SDS011;4351;51.422;6.794;2023-03-31T04:26:27;10.27;;;2.23;;
8626;SDS011;4351;51.422;6.794;2023-03-31T04:29:08;11.00;;;2.43;;
8626;SDS011;4351;51.422;6.794;2023-03-31T04:31:39;11.37;;;2.67;;
8626;SDS011;4351;51.422;6.794;2023-03-31T04:34:08;12.10;;;2.60;;
8626;SDS011;4351;51.422;6.794;2023-03-31T04:36:41;9.00;;;2.37;;
8626;SDS011;4351;51.422;6.794;2023-03-31T04:39:12;9.77;;;2.40;;
8626;SDS011;4351;51.422;6.794;2023-03-31T04:41:40;11.77;;;2.83;;
8626;SDS011;4351;51.422;6.794;2023-03-31T04:44:08;13.43;;;2.63;;
8626;SDS011;4351;51.422;6.794;2023-03-31T04:46:36;13.27;;;2.80;;
8626;SDS011;4351;51.422;6.794;2023-03-31T04:49:04;9.63;;;2.47;;
8626;SDS011;4351;51.422;6.794;2023-03-31T04:51:32;8.60;;;2.43;;
8626;SDS011;4351;51.422;6.794;2023-03-31T04:54:01;12.17;;;2.63;;
8626;SDS011;4351;51.422;6.794;2023-03-31T04:56:29;10.40;;;3.03;;
8626;SDS011;4351;51.422;6.794;2023-03-31T04:58:57;10.33;;;2.70;;
8626;SDS011;4351;51.422;6.794;2023-03-31T05:01:25;20.63;;;3.10;;
8626;SDS011;4351;51.422;6.794;2023-03-31T05:03:53;9.03;;;2.30;;
8626;SDS011;4351;51.422;6.794;2023-03-31T05:06:21;11.43;;;2.57;;
8626;SDS011;4351;51.422;6.794;2023-03-31T05:08:49;10.63;;;2.40;;
8626;SDS011;4351;51.422;6.794;2023-03-31T05:11:18;9.50;;;2.27;;
8626;SDS011;4351;51.422;6.794;2023-03-31T05:13:46;6.67;;;2.00;;
8626;SDS011;4351;51.422;6.794;2023-03-31T05:16:14;12.67;;;2.50;;
8626;SDS011;4351;51.422;6.794;2023-03-31T05:18:42;12.70;;;2.30;;
8626;SDS011;4351;51.422;6.794;2023-03-31T05:21:12;8.27;;;2.00;;
8626;SDS011;4351;51.422;6.794;2023-03-31T05:23:41;13.23;;;2.70;;
8626;SDS011;4351;51.422;6.794;2023-03-31T05:26:10;12.50;;;2.30;;
8626;SDS011;4351;51.422;6.794;2023-03-31T05:28:40;6.30;;;1.90;;
8626;SDS011;4351;51.422;6.794;2023-03-31T05:31:09;6.00;;;2.00;;
8626;SDS011;4351;51.422;6.794;2023-03-31T05:33:38;11.17;;;2.33;;
8626;SDS011;4351;51.422;6.794;2023-03-31T05:36:08;11.13;;;1.90;;
8626;SDS011;4351;51.422;6.794;2023-03-31T05:38:37;8.33;;;1.97;;
8626;SDS011;4351;51.422;6.794;2023-03-31T05:41:05;10.43;;;2.10;;
8626;SDS011;4351;51.422;6.794;2023-03-31T05:43:34;8.93;;;1.90;;
8626;SDS011;4351;51.422;6.794;2023-03-31T05:46:04;8.87;;;2.00;;
8626;SDS011;4351;51.422;6.794;2023-03-31T05:48:33;6.70;;;1.83;;
8626;SDS011;4351;51.422;6.794;2023-03-31T05:51:02;6.73;;;1.87;;
8626;SDS011;4351;51.422;6.794;2023-03-31T05:53:30;8.87;;;2.07;;
8626;SDS011;4351;51.422;6.794;2023-03-31T05:56:00;6.33;;;1.73;;
8626;SDS011;4351;51.422;6.794;2023-03-31T05:58:30;7.53;;;1.57;;
8626;SDS011;4351;51.422;6.794;2023-03-31T06:01:02;6.43;;;1.50;;
8626;SDS011;4351;51.422;6.794;2023-03-31T06:03:33;8.77;;;1.83;;
8626;SDS011;4351;51.422;6.794;2023-03-31T06:06:02;5.50;;;1.40;;
8626;SDS011;4351;51.422;6.794;2023-03-31T06:08:33;4.77;;;1.40;;
8626;SDS011;4351;51.422;6.794;2023-03-31T06:11:03;5.67;;;1.53;;
8626;SDS011;4351;51.422;6.794;2023-03-31T06:13:32;8.03;;;1.63;;
8626;SDS011;4351;51.422;6.794;2023-03-31T06:16:00;5.63;;;1.60;;
8626;SDS011;4351;51.422;6.794;2023-03-31T06:18:30;5.67;;;1.40;;
8626;SDS011;4351;51.422;6.794;2023-03-31T06:21:00;5.90;;;1.40;;
8626;SDS011;4351;51.422;6.794;2023-03-31T06:23:29;5.97;;;1.97;;
8626;SDS011;4351;51.422;6.794;2023-03-31T06:25:59;6.10;;;1.60;;
8626;SDS011;4351;51.422;6.794;2023-03-31T06:28:27;5.13;;;1.70;;
8626;SDS011;4351;51.422;6.794;2023-03-31T06:31:00;6.30;;;1.80;;
8626;SDS011;4351;51.422;6.794;2023-03-31T06:33:31;7.63;;;1.60;;
8626;SDS011;4351;51.422;6.794;2023-03-31T06:36:00;6.50;;;1.50;;
8626;SDS011;4351;51.422;6.794;2023-03-31T06:38:31;8.30;;;2.27;;
8626;SDS011;4351;51.422;6.794;2023-03-31T06:40:59;6.53;;;1.80;;
8626;SDS011;4351;51.422;6.794;2023-03-31T06:43:27;7.07;;;2.13;;
8626;SDS011;4351;51.422;6.794;2023-03-31T06:45:55;5.87;;;1.70;;
8626;SDS011;4351;51.422;6.794;2023-03-31T06:48:23;5.23;;;2.20;;
8626;SDS011;4351;51.422;6.794;2023-03-31T06:50:53;7.70;;;1.90;;
8626;SDS011;4351;51.422;6.794;2023-03-31T06:53:21;7.47;;;2.03;;
8626;SDS011;4351;51.422;6.794;2023-03-31T06:55:49;6.80;;;1.90;;
8626;SDS011;4351;51.422;6.794;2023-03-31T06:58:17;6.83;;;2.07;;
8626;SDS011;4351;51.422;6.794;2023-03-31T07:00:45;9.77;;;2.20;;
8626;SDS011;4351;51.422;6.794;2023-03-31T07:03:13;7.13;;;2.13;;
8626;SDS011;4351;51.422;6.794;2023-03-31T07:05:46;9.57;;;2.20;;
8626;SDS011;4351;51.422;6.794;2023-03-31T07:08:20;5.87;;;2.27;;
8626;SDS011;4351;51.422;6.794;2023-03-31T07:10:52;5.23;;;1.80;;
8626;SDS011;4351;51.422;6.794;2023-03-31T07:13:23;6.33;;;2.13;;
8626;SDS011;4351;51.422;6.794;2023-03-31T07:15:51;7.07;;;2.23;;
8626;SDS011;4351;51.422;6.794;2023-03-31T07:18:19;6.80;;;2.07;;
8626;SDS011;4351;51.422;6.794;2023-03-31T07:20:51;7.30;;;2.10;;
8626;SDS011;4351;51.422;6.794;2023-03-31T07:23:21;10.10;;;2.23;;
8626;SDS011;4351;51.422;6.794;2023-03-31T07:25:48;7.47;;;2.40;;
8626;SDS011;4351;51.422;6.794;2023-03-31T07:28:16;6.83;;;2.37;;
8626;SDS011;4351;51.422;6.794;2023-03-31T07:30:44;7.77;;;2.50;;
8626;SDS011;4351;51.422;6.794;2023-03-31T07:33:12;5.80;;;2.00;;
8626;SDS011;4351;51.422;6.794;2023-03-31T07:35:40;6.83;;;2.30;;
8626;SDS011;4351;51.422;6.794;2023-03-31T07:38:08;7.83;;;2.50;;
8626;SDS011;4351;51.422;6.794;2023-03-31T07:40:39;8.83;;;2.40;;
8626;SDS011;4351;51.422;6.794;2023-03-31T07:43:08;6.57;;;2.03;;
8626;SDS011;4351;51.422;6.794;2023-03-31T07:45:36;5.37;;;1.97;;
8626;SDS011;4351;51.422;6.794;2023-03-31T07:48:06;7.07;;;1.97;;
8626;SDS011;4351;51.422;6.794;2023-03-31T07:50:34;9.03;;;2.37;;
8626;SDS011;4351;51.422;6.794;2023-03-31T07:53:06;10.67;;;2.43;;
8626;SDS011;4351;51.422;6.794;2023-03-31T07:55:34;7.23;;;2.20;;
8626;SDS011;4351;51.422;6.794;2023-03-31T07:58:04;7.97;;;2.30;;
8626;SDS011;4351;51.422;6.794;2023-03-31T08:00:32;9.13;;;2.70;;
8626;SDS011;4351;51.422;6.794;2023-03-31T08:02:59;9.27;;;2.83;;
8626;SDS011;4351;51.422;6.794;2023-03-31T08:05:27;11.80;;;3.73;;
8626;SDS011;4351;51.422;6.794;2023-03-31T08:07:55;6.47;;;2.90;;
8626;SDS011;4351;51.422;6.794;2023-03-31T08:10:25;8.37;;;2.80;;
8626;SDS011;4351;51.422;6.794;2023-03-31T08:12:53;8.47;;;2.67;;
8626;SDS011;4351;51.422;6.794;2023-03-31T08:15:23;9.77;;;2.90;;
8626;SDS011;4351;51.422;6.794;2023-03-31T08:17:51;8.23;;;3.00;;
8626;SDS011;4351;51.422;6.794;2023-03-31T08:20:19;7.77;;;2.47;;
8626;SDS011;4351;51.422;6.794;2023-03-31T08:22:47;5.00;;;1.80;;
8626;SDS011;4351;51.422;6.794;2023-03-31T08:25:15;6.90;;;2.10;;
8626;SDS011;4351;51.422;6.794;2023-03-31T08:27:43;8.43;;;2.20;;
8626;SDS011;4351;51.422;6.794;2023-03-31T08:30:14;6.10;;;2.00;;
8626;SDS011;4351;51.422;6.794;2023-03-31T08:32:44;5.77;;;1.83;;
8626;SDS011;4351;51.422;6.794;2023-03-31T08:35:12;5.90;;;1.97;;
8626;SDS011;4351;51.422;6.794;2023-03-31T08:37:40;3.57;;;1.50;;
8626;SDS011;4351;51.422;6.794;2023-03-31T08:40:09;6.07;;;2.00;;
8626;SDS011;4351;51.422;6.794;2023-03-31T08:42:43;7.10;;;1.80;;
8626;SDS011;4351;51.422;6.794;2023-03-31T08:45:16;6.23;;;2.00;;
8626;SDS011;4351;51.422;6.794;2023-03-31T08:47:50;7.70;;;1.87;;
8626;SDS011;4351;51.422;6.794;2023-03-31T08:50:24;6.87;;;1.73;;
8626;SDS011;4351;51.422;6.794;2023-03-31T08:52:57;5.27;;;1.80;;
8626;SDS011;4351;51.422;6.794;2023-03-31T08:55:34;6.00;;;2.20;;
8626;SDS011;4351;51.422;6.794;2023-03-31T08:58:12;6.00;;;2.07;;
8626;SDS011;4351;51.422;6.794;2023-03-31T09:00:54;8.27;;;2.40;;
8626;SDS011;4351;51.422;6.794;2023-03-31T09:03:27;7.57;;;1.93;;
8626;SDS011;4351;51.422;6.794;2023-03-31T09:06:02;7.93;;;2.30;;
8626;SDS011;4351;51.422;6.794;2023-03-31T09:08:34;7.70;;;1.87;;
8626;SDS011;4351;51.422;6.794;2023-03-31T09:11:07;8.70;;;1.97;;
8626;SDS011;4351;51.422;6.794;2023-03-31T09:13:51;8.63;;;2.10;;
8626;SDS011;4351;51.422;6.794;2023-03-31T09:16:45;11.53;;;2.33;;
8626;SDS011;4351;51.422;6.794;2023-03-31T09:19:22;8.57;;;2.13;;
8626;SDS011;4351;51.422;6.794;2023-03-31T09:21:59;12.40;;;2.50;;
8626;SDS011;4351;51.422;6.794;2023-03-31T09:24:29;12.70;;;2.10;;
8626;SDS011;4351;51.422;6.794;2023-03-31T09:27:02;13.20;;;2.80;;
8626;SDS011;4351;51.422;6.794;2023-03-31T09:29:34;11.33;;;2.87;;
8626;SDS011;4351;51.422;6.794;2023-03-31T09:32:12;10.20;;;2.23;;
8626;SDS011;4351;51.422;6.794;2023-03-31T09:34:44;11.07;;;2.40;;
8626;SDS011;4351;51.422;6.794;2023-03-31T09:37:13;11.30;;;2.20;;
8626;SDS011;4351;51.422;6.794;2023-03-31T09:39:41;11.87;;;2.27;;
8626;SDS011;4351;51.422;6.794;2023-03-31T09:42:09;9.50;;;2.37;;
8626;SDS011;4351;51.422;6.794;2023-03-31T09:44:42;9.20;;;2.07;;
8626;SDS011;4351;51.422;6.794;2023-03-31T09:47:12;18.17;;;3.20;;
8626;SDS011;4351;51.422;6.794;2023-03-31T09:49:48;12.10;;;2.47;;
8626;SDS011;4351;51.422;6.794;2023-03-31T09:52:23;11.70;;;2.03;;
8626;SDS011;4351;51.422;6.794;2023-03-31T09:54:55;12.43;;;2.37;;
8626;SDS011;4351;51.422;6.794;2023-03-31T09:57:27;10.23;;;2.17;;
8626;SDS011;4351;51.422;6.794;2023-03-31T10:00:04;8.13;;;2.00;;
8626;SDS011;4351;51.422;6.794;2023-03-31T10:02:43;9.30;;;2.53;;
8626;SDS011;4351;51.422;6.794;2023-03-31T10:05:26;12.23;;;2.30;;
8626;SDS011;4351;51.422;6.794;2023-03-31T10:10:55;11.13;;;2.30;;
8626;SDS011;4351;51.422;6.794;2023-03-31T10:13:25;12.13;;;2.43;;
8626;SDS011;4351;51.422;6.794;2023-03-31T10:16:00;11.27;;;2.20;;
8626;SDS011;4351;51.422;6.794;2023-03-31T10:18:31;10.47;;;3.20;;
8626;SDS011;4351;51.422;6.794;2023-03-31T10:21:04;10.73;;;2.90;;
8626;SDS011;4351;51.422;6.794;2023-03-31T10:23:34;10.33;;;2.77;;
8626;SDS011;4351;51.422;6.794;2023-03-31T10:26:03;13.93;;;3.53;;
8626;SDS011;4351;51.422;6.794;2023-03-31T10:28:32;12.03;;;3.13;;
8626;SDS011;4351;51.422;6.794;2023-03-31T10:31:02;11.73;;;2.57;;
8626;SDS011;4351;51.422;6.794;2023-03-31T10:33:32;12.37;;;3.10;;
8626;SDS011;4351;51.422;6.794;2023-03-31T10:36:12;12.13;;;2.73;;
8626;SDS011;4351;51.422;6.794;2023-03-31T10:38:48;14.00;;;2.70;;
8626;SDS011;4351;51.422;6.794;2023-03-31T10:41:18;11.33;;;3.13;;
8626;SDS011;4351;51.422;6.794;2023-03-31T10:43:49;9.30;;;2.40;;
8626;SDS011;4351;51.422;6.794;2023-03-31T10:46:18;11.87;;;2.70;;
8626;SDS011;4351;51.422;6.794;2023-03-31T10:48:48;11.70;;;2.70;;
8626;SDS011;4351;51.422;6.794;2023-03-31T10:51:20;9.50;;;2.07;;
8626;SDS011;4351;51.422;6.794;2023-03-31T10:53:53;14.10;;;3.27;;
8626;SDS011;4351;51.422;6.794;2023-03-31T10:56:28;14.20;;;3.40;;
8626;SDS011;4351;51.422;6.794;2023-03-31T10:59:05;13.60;;;3.20;;
8626;SDS011;4351;51.422;6.794;2023-03-31T11:01:53;10.37;;;3.40;;
8626;SDS011;4351;51.422;6.794;2023-03-31T11:04:37;12.57;;;3.43;;
8626;SDS011;4351;51.422;6.794;2023-03-31T11:07:23;13.77;;;3.10;;
8626;SDS011;4351;51.422;6.794;2023-03-31T11:10:06;10.57;;;2.37;;
8626;SDS011;4351;51.422;6.794;2023-03-31T11:12:49;13.60;;;2.50;;
8626;SDS011;4351;51.422;6.794;2023-03-31T11:15:24;13.33;;;2.40;;
8626;SDS011;4351;51.422;6.794;2023-03-31T11:18:03;10.67;;;1.80;;
8626;SDS011;4351;51.422;6.794;2023-03-31T11:20:46;7.30;;;1.50;;
8626;SDS011;4351;51.422;6.794;2023-03-31T11:23:26;5.87;;;1.37;;
8626;SDS011;4351;51.422;6.794;2023-03-31T11:26:00;3.87;;;0.97;;
8626;SDS011;4351;51.422;6.794;2023-03-31T11:31:37;5.37;;;1.07;;
8626;SDS011;4351;51.422;6.794;2023-03-31T11:34:19;5.53;;;1.37;;
8626;SDS011;4351;51.422;6.794;2023-03-31T11:37:11;8.13;;;1.70;;
8626;SDS011;4351;51.422;6.794;2023-03-31T11:39:51;8.87;;;2.17;;
8626;SDS011;4351;51.422;6.794;2023-03-31T11:42:33;7.07;;;1.83;;
8626;SDS011;4351;51.422;6.794;2023-03-31T11:45:11;7.53;;;2.00;;
8626;SDS011;4351;51.422;6.794;2023-03-31T11:47:42;7.07;;;2.20;;
8626;SDS011;4351;51.422;6.794;2023-03-31T11:50:14;7.27;;;1.90;;
8626;SDS011;4351;51.422;6.794;2023-03-31T11:52:47;6.73;;;2.20;;
8626;SDS011;4351;51.422;6.794;2023-03-31T11:55:21;5.47;;;1.83;;
8626;SDS011;4351;51.422;6.794;2023-03-31T11:57:55;4.50;;;1.50;;
8626;SDS011;4351;51.422;6.794;2023-03-31T12:00:29;7.03;;;1.60;;
8626;SDS011;4351;51.422;6.794;2023-03-31T12:03:03;8.23;;;1.60;;
8626;SDS011;4351;51.422;6.794;2023-03-31T12:05:38;10.47;;;2.07;;
8626;SDS011;4351;51.422;6.794;2023-03-31T12:08:12;7.90;;;2.13;;
8626;SDS011;4351;51.422;6.794;2023-03-31T12:10:45;7.37;;;1.73;;
8626;SDS011;4351;51.422;6.794;2023-03-31T12:13:29;10.03;;;2.00;;
8626;SDS011;4351;51.422;6.794;2023-03-31T12:16:04;9.67;;;2.30;;
8626;SDS011;4351;51.422;6.794;2023-03-31T12:18:36;9.47;;;2.27;;
8626;SDS011;4351;51.422;6.794;2023-03-31T12:21:09;8.27;;;2.00;;
8626;SDS011;4351;51.422;6.794;2023-03-31T12:23:39;9.80;;;2.17;;
8626;SDS011;4351;51.422;6.794;2023-03-31T12:26:15;8.50;;;2.13;;
8626;SDS011;4351;51.422;6.794;2023-03-31T12:28:55;9.03;;;2.07;;
8626;SDS011;4351;51.422;6.794;2023-03-31T12:31:26;10.93;;;2.17;;
8626;SDS011;4351;51.422;6.794;2023-03-31T12:33:59;9.77;;;1.80;;
8626;SDS011;4351;51.422;6.794;2023-03-31T12:36:34;8.67;;;2.00;;
8626;SDS011;4351;51.422;6.794;2023-03-31T12:39:18;13.90;;;3.07;;
8626;SDS011;4351;51.422;6.794;2023-03-31T12:42:05;12.37;;;2.93;;
8626;SDS011;4351;51.422;6.794;2023-03-31T12:44:45;13.93;;;2.70;;
8626;SDS011;4351;51.422;6.794;2023-03-31T12:47:29;8.97;;;2.50;;
8626;SDS011;4351;51.422;6.794;2023-03-31T12:50:12;10.93;;;2.50;;
8626;SDS011;4351;51.422;6.794;2023-03-31T12:52:55;11.37;;;2.43;;
8626;SDS011;4351;51.422;6.794;2023-03-31T12:55:32;11.27;;;2.80;;
8626;SDS011;4351;51.422;6.794;2023-03-31T13:01:11;9.37;;;2.13;;
8626;SDS011;4351;51.422;6.794;2023-03-31T13:03:46;12.43;;;2.23;;
8626;SDS011;4351;51.422;6.794;2023-03-31T13:09:39;8.73;;;2.20;;
8626;SDS011;4351;51.422;6.794;2023-03-31T13:12:12;10.10;;;2.40;;
8626;SDS011;4351;51.422;6.794;2023-03-31T13:14:44;10.93;;;2.57;;
8626;SDS011;4351;51.422;6.794;2023-03-31T13:17:19;9.10;;;2.73;;
8626;SDS011;4351;51.422;6.794;2023-03-31T13:19:53;11.73;;;3.30;;
8626;SDS011;4351;51.422;6.794;2023-03-31T13:22:30;14.43;;;3.40;;
8626;SDS011;4351;51.422;6.794;2023-03-31T13:31:06;9.97;;;2.20;;
8626;SDS011;4351;51.422;6.794;2023-03-31T13:33:39;9.80;;;2.97;;
8626;SDS011;4351;51.422;6.794;2023-03-31T13:36:23;9.47;;;3.40;;
8626;SDS011;4351;51.422;6.794;2023-03-31T13:43:01;7.13;;;2.60;;
8626;SDS011;4351;51.422;6.794;2023-03-31T13:45:49;10.27;;;3.70;;
8626;SDS011;4351;51.422;6.794;2023-03-31T13:48:28;7.20;;;3.03;;
8626;SDS011;4351;51.422;6.794;2023-03-31T13:51:18;7.93;;;2.20;;
8626;SDS011;4351;51.422;6.794;2023-03-31T13:54:01;6.77;;;1.80;;
8626;SDS011;4351;51.422;6.794;2023-03-31T13:56:54;7.57;;;1.70;;
8626;SDS011;4351;51.422;6.794;2023-03-31T13:59:53;5.97;;;1.53;;
8626;SDS011;4351;51.422;6.794;2023-03-31T14:02:42;11.07;;;3.90;;
8626;SDS011;4351;51.422;6.794;2023-03-31T14:05:29;6.53;;;1.60;;
8626;SDS011;4351;51.422;6.794;2023-03-31T14:08:02;5.40;;;1.80;;
8626;SDS011;4351;51.422;6.794;2023-03-31T14:10:38;8.33;;;2.43;;
8626;SDS011;4351;51.422;6.794;2023-03-31T14:13:09;8.53;;;2.60;;
8626;SDS011;4351;51.422;6.794;2023-03-31T14:15:41;9.20;;;2.60;;
8626;SDS011;4351;51.422;6.794;2023-03-31T14:18:14;7.93;;;2.00;;
8626;SDS011;4351;51.422;6.794;2023-03-31T14:23:48;7.07;;;2.10;;
8626;SDS011;4351;51.422;6.794;2023-03-31T14:26:34;4.90;;;1.33;;
8626;SDS011;4351;51.422;6.794;2023-03-31T14:29:13;9.87;;;1.87;;
8626;SDS011;4351;51.422;6.794;2023-03-31T14:31:48;8.83;;;1.67;;
8626;SDS011;4351;51.422;6.794;2023-03-31T14:34:32;6.10;;;1.90;;
8626;SDS011;4351;51.422;6.794;2023-03-31T14:37:14;7.93;;;1.60;;
8626;SDS011;4351;51.422;6.794;2023-03-31T14:39:47;7.13;;;1.80;;
8626;SDS011;4351;51.422;6.794;2023-03-31T14:42:18;4.20;;;1.43;;
8626;SDS011;4351;51.422;6.794;2023-03-31T14:44:48;5.83;;;1.23;;
8626;SDS011;4351;51.422;6.794;2023-03-31T14:47:24;5.27;;;1.63;;
8626;SDS011;4351;51.422;6.794;2023-03-31T14:49:58;6.67;;;1.60;;
8626;SDS011;4351;51.422;6.794;2023-03-31T14:52:30;10.20;;;1.60;;
8626;SDS011;4351;51.422;6.794;2023-03-31T14:55:01;8.57;;;2.00;;
8626;SDS011;4351;51.422;6.794;2023-03-31T14:57:29;9.50;;;2.03;;
8626;SDS011;4351;51.422;6.794;2023-03-31T15:00:02;7.97;;;2.03;;
8626;SDS011;4351;51.422;6.794;2023-03-31T15:02:34;7.60;;;1.60;;
8626;SDS011;4351;51.422;6.794;2023-03-31T15:05:07;6.57;;;1.90;;
8626;SDS011;4351;51.422;6.794;2023-03-31T15:07:41;9.40;;;2.07;;
8626;SDS011;4351;51.422;6.794;2023-03-31T15:10:11;8.27;;;2.43;;
8626;SDS011;4351;51.422;6.794;2023-03-31T15:12:45;9.87;;;2.53;;
8626;SDS011;4351;51.422;6.794;2023-03-31T15:15:15;7.67;;;2.63;;
8626;SDS011;4351;51.422;6.794;2023-03-31T15:17:45;7.73;;;2.30;;
8626;SDS011;4351;51.422;6.794;2023-03-31T15:20:24;7.70;;;2.20;;
8626;SDS011;4351;51.422;6.794;2023-03-31T15:22:56;12.20;;;4.23;;
8626;SDS011;4351;51.422;6.794;2023-03-31T15:25:29;12.73;;;3.30;;
8626;SDS011;4351;51.422;6.794;2023-03-31T15:28:03;8.60;;;2.40;;
8626;SDS011;4351;51.422;6.794;2023-03-31T15:30:33;7.87;;;2.13;;
8626;SDS011;4351;51.422;6.794;2023-03-31T15:33:04;6.30;;;1.60;;
8626;SDS011;4351;51.422;6.794;2023-03-31T15:35:55;7.40;;;1.50;;
8626;SDS011;4351;51.422;6.794;2023-03-31T15:38:26;7.77;;;1.50;;
8626;SDS011;4351;51.422;6.794;2023-03-31T15:40:57;5.07;;;1.50;;
8626;SDS011;4351;51.422;6.794;2023-03-31T15:43:27;4.57;;;1.70;;
8626;SDS011;4351;51.422;6.794;2023-03-31T15:45:56;4.37;;;1.50;;
8626;SDS011;4351;51.422;6.794;2023-03-31T15:48:26;4.23;;;1.23;;
8626;SDS011;4351;51.422;6.794;2023-03-31T15:50:59;5.37;;;1.50;;
8626;SDS011;4351;51.422;6.794;2023-03-31T15:53:31;4.20;;;1.53;;
8626;SDS011;4351;51.422;6.794;2023-03-31T15:56:03;6.77;;;2.37;;
8626;SDS011;4351;51.422;6.794;2023-03-31T15:58:46;6.80;;;1.97;;
8626;SDS011;4351;51.422;6.794;2023-03-31T16:01:21;8.93;;;2.30;;
8626;SDS011;4351;51.422;6.794;2023-03-31T16:03:53;6.83;;;2.80;;
8626;SDS011;4351;51.422;6.794;2023-03-31T16:06:26;8.87;;;2.50;;
8626;SDS011;4351;51.422;6.794;2023-03-31T16:09:03;7.10;;;2.00;;
8626;SDS011;4351;51.422;6.794;2023-03-31T16:11:35;4.37;;;1.80;;
8626;SDS011;4351;51.422;6.794;2023-03-31T16:14:07;5.23;;;1.50;;
8626;SDS011;4351;51.422;6.794;2023-03-31T16:16:46;6.47;;;1.30;;
8626;SDS011;4351;51.422;6.794;2023-03-31T16:19:17;5.80;;;1.50;;